sensor_id;sensor_type;location;lat;lon;timestamp;P1;durP1;ratioP1;P2;durP2;ratioP2
36923;SDS011;22841;50.252;18.688;2023-02-01T00:02:03;8.10;;;4.93;;
36923;SDS011;22841;50.252;18.688;2023-02-01T00:04:29;7.95;;;5.18;;
36923;SDS011;22841;50.252;18.688;2023-02-01T00:06:55;8.68;;;5.35;;
36923;SDS011;22841;50.252;18.688;2023-02-01T00:09:21;9.88;;;4.88;;
36923;SDS011;22841;50.252;18.688;2023-02-01T00:11:47;8.60;;;4.80;;
36923;SDS011;22841;50.252;18.688;2023-02-01T00:14:14;9.55;;;4.65;;
36923;SDS011;22841;50.252;18.688;2023-02-01T00:16:40;7.18;;;4.10;;
36923;SDS011;22841;50.252;18.688;2023-02-01T00:19:15;7.70;;;4.28;;
36923;SDS011;22841;50.252;18.688;2023-02-01T00:21:41;9.40;;;5.18;;
36923;SDS011;22841;50.252;18.688;2023-02-01T00:24:08;10.43;;;5.30;;
36923;SDS011;22841;50.252;18.688;2023-02-01T00:26:36;11.57;;;5.25;;
36923;SDS011;22841;50.252;18.688;2023-02-01T00:29:06;9.90;;;4.63;;
36923;SDS011;22841;50.252;18.688;2023-02-01T00:31:34;10.40;;;5.03;;
36923;SDS011;22841;50.252;18.688;2023-02-01T00:34:00;9.23;;;5.32;;
36923;SDS011;22841;50.252;18.688;2023-02-01T00:36:26;12.32;;;4.50;;
36923;SDS011;22841;50.252;18.688;2023-02-01T00:38:53;8.15;;;4.65;;
36923;SDS011;22841;50.252;18.688;2023-02-01T00:41:20;8.25;;;5.35;;
36923;SDS011;22841;50.252;18.688;2023-02-01T00:43:47;18.33;;;7.32;;
36923;SDS011;22841;50.252;18.688;2023-02-01T00:46:16;13.38;;;5.30;;
36923;SDS011;22841;50.252;18.688;2023-02-01T00:48:43;12.13;;;5.10;;
36923;SDS011;22841;50.252;18.688;2023-02-01T00:51:14;11.55;;;5.35;;
36923;SDS011;22841;50.252;18.688;2023-02-01T00:53:41;12.27;;;4.65;;
36923;SDS011;22841;50.252;18.688;2023-02-01T00:56:08;7.07;;;3.40;;
36923;SDS011;22841;50.252;18.688;2023-02-01T00:58:35;11.05;;;3.83;;
36923;SDS011;22841;50.252;18.688;2023-02-01T01:03:55;10.50;;;2.70;;
36923;SDS011;22841;50.252;18.688;2023-02-01T01:06:27;18.45;;;3.70;;
36923;SDS011;22841;50.252;18.688;2023-02-01T01:08:55;11.30;;;3.10;;
36923;SDS011;22841;50.252;18.688;2023-02-01T01:11:24;6.65;;;2.78;;
36923;SDS011;22841;50.252;18.688;2023-02-01T01:13:53;11.77;;;4.18;;
36923;SDS011;22841;50.252;18.688;2023-02-01T01:16:21;7.22;;;2.47;;
36923;SDS011;22841;50.252;18.688;2023-02-01T01:18:48;1.58;;;1.15;;
36923;SDS011;22841;50.252;18.688;2023-02-01T01:21:15;7.15;;;1.38;;
36923;SDS011;22841;50.252;18.688;2023-02-01T01:23:42;3.25;;;1.05;;
36923;SDS011;22841;50.252;18.688;2023-02-01T01:26:10;2.22;;;1.05;;
36923;SDS011;22841;50.252;18.688;2023-02-01T01:28:40;1.85;;;0.65;;
36923;SDS011;22841;50.252;18.688;2023-02-01T01:31:11;3.35;;;0.90;;
36923;SDS011;22841;50.252;18.688;2023-02-01T01:33:38;1.87;;;1.00;;
36923;SDS011;22841;50.252;18.688;2023-02-01T01:36:04;8.63;;;1.00;;
36923;SDS011;22841;50.252;18.688;2023-02-01T01:38:32;10.32;;;1.33;;
36923;SDS011;22841;50.252;18.688;2023-02-01T01:40:58;3.78;;;0.82;;
36923;SDS011;22841;50.252;18.688;2023-02-01T01:43:24;6.43;;;1.17;;
36923;SDS011;22841;50.252;18.688;2023-02-01T01:45:50;3.97;;;1.00;;
36923;SDS011;22841;50.252;18.688;2023-02-01T01:48:26;7.63;;;1.20;;
36923;SDS011;22841;50.252;18.688;2023-02-01T01:51:06;2.05;;;0.73;;
36923;SDS011;22841;50.252;18.688;2023-02-01T01:53:37;3.17;;;1.40;;
36923;SDS011;22841;50.252;18.688;2023-02-01T01:56:09;2.10;;;0.90;;
36923;SDS011;22841;50.252;18.688;2023-02-01T01:58:36;5.93;;;0.82;;
36923;SDS011;22841;50.252;18.688;2023-02-01T02:01:02;6.13;;;1.50;;
36923;SDS011;22841;50.252;18.688;2023-02-01T02:03:39;8.75;;;1.65;;
36923;SDS011;22841;50.252;18.688;2023-02-01T02:06:16;7.45;;;2.53;;
36923;SDS011;22841;50.252;18.688;2023-02-01T02:08:53;7.15;;;1.88;;
36923;SDS011;22841;50.252;18.688;2023-02-01T02:11:19;3.72;;;2.08;;
36923;SDS011;22841;50.252;18.688;2023-02-01T02:13:46;4.32;;;2.00;;
36923;SDS011;22841;50.252;18.688;2023-02-01T02:16:24;11.10;;;2.90;;
36923;SDS011;22841;50.252;18.688;2023-02-01T02:24:37;7.32;;;2.35;;
36923;SDS011;22841;50.252;18.688;2023-02-01T02:35:26;7.75;;;2.25;;
36923;SDS011;22841;50.252;18.688;2023-02-01T02:38:10;4.78;;;1.45;;
36923;SDS011;22841;50.252;18.688;2023-02-01T02:41:03;9.85;;;2.20;;
36923;SDS011;22841;50.252;18.688;2023-02-01T02:46:37;7.50;;;2.35;;
36923;SDS011;22841;50.252;18.688;2023-02-01T02:49:29;12.63;;;4.50;;
36923;SDS011;22841;50.252;18.688;2023-02-01T02:52:06;10.30;;;6.38;;
36923;SDS011;22841;50.252;18.688;2023-02-01T02:54:58;15.25;;;8.38;;
36923;SDS011;22841;50.252;18.688;2023-02-01T02:57:33;14.00;;;7.88;;
36923;SDS011;22841;50.252;18.688;2023-02-01T03:00:22;12.07;;;6.55;;
36923;SDS011;22841;50.252;18.688;2023-02-01T03:03:11;10.05;;;6.10;;
36923;SDS011;22841;50.252;18.688;2023-02-01T03:05:56;7.68;;;5.28;;
36923;SDS011;22841;50.252;18.688;2023-02-01T03:08:23;5.85;;;4.05;;
36923;SDS011;22841;50.252;18.688;2023-02-01T03:11:06;12.00;;;4.85;;
36923;SDS011;22841;50.252;18.688;2023-02-01T03:16:50;16.27;;;7.38;;
36923;SDS011;22841;50.252;18.688;2023-02-01T03:19:31;15.47;;;7.50;;
36923;SDS011;22841;50.252;18.688;2023-02-01T03:22:08;14.98;;;7.32;;
36923;SDS011;22841;50.252;18.688;2023-02-01T03:24:39;15.95;;;8.90;;
36923;SDS011;22841;50.252;18.688;2023-02-01T03:27:23;7.57;;;4.43;;
36923;SDS011;22841;50.252;18.688;2023-02-01T03:32:27;8.98;;;4.30;;
36923;SDS011;22841;50.252;18.688;2023-02-01T03:34:53;8.00;;;4.32;;
36923;SDS011;22841;50.252;18.688;2023-02-01T03:37:22;9.57;;;4.45;;
36923;SDS011;22841;50.252;18.688;2023-02-01T03:40:01;11.63;;;4.93;;
36923;SDS011;22841;50.252;18.688;2023-02-01T03:42:40;10.10;;;5.15;;
36923;SDS011;22841;50.252;18.688;2023-02-01T03:45:18;14.10;;;8.18;;
36923;SDS011;22841;50.252;18.688;2023-02-01T03:47:49;11.23;;;6.35;;
36923;SDS011;22841;50.252;18.688;2023-02-01T03:50:20;27.77;;;14.38;;
36923;SDS011;22841;50.252;18.688;2023-02-01T03:52:58;19.33;;;9.27;;
36923;SDS011;22841;50.252;18.688;2023-02-01T03:55:27;14.05;;;5.75;;
36923;SDS011;22841;50.252;18.688;2023-02-01T03:57:57;11.65;;;6.22;;
36923;SDS011;22841;50.252;18.688;2023-02-01T04:00:31;17.88;;;8.00;;
36923;SDS011;22841;50.252;18.688;2023-02-01T04:02:57;32.15;;;11.48;;
36923;SDS011;22841;50.252;18.688;2023-02-01T04:05:24;33.13;;;11.18;;
36923;SDS011;22841;50.252;18.688;2023-02-01T04:07:50;29.67;;;11.70;;
36923;SDS011;22841;50.252;18.688;2023-02-01T04:10:16;42.10;;;13.25;;
36923;SDS011;22841;50.252;18.688;2023-02-01T04:12:42;48.13;;;15.70;;
36923;SDS011;22841;50.252;18.688;2023-02-01T04:15:08;41.88;;;17.67;;
36923;SDS011;22841;50.252;18.688;2023-02-01T04:17:35;46.72;;;20.40;;
36923;SDS011;22841;50.252;18.688;2023-02-01T04:20:01;52.45;;;24.20;;
36923;SDS011;22841;50.252;18.688;2023-02-01T04:22:27;37.60;;;18.27;;
36923;SDS011;22841;50.252;18.688;2023-02-01T04:24:54;27.17;;;11.70;;
36923;SDS011;22841;50.252;18.688;2023-02-01T04:27:20;26.08;;;11.90;;
36923;SDS011;22841;50.252;18.688;2023-02-01T04:29:46;19.45;;;10.02;;
36923;SDS011;22841;50.252;18.688;2023-02-01T04:32:12;23.45;;;8.90;;
36923;SDS011;22841;50.252;18.688;2023-02-01T04:34:38;16.20;;;7.22;;
36923;SDS011;22841;50.252;18.688;2023-02-01T04:37:04;14.30;;;6.65;;
36923;SDS011;22841;50.252;18.688;2023-02-01T04:39:30;10.95;;;5.40;;
36923;SDS011;22841;50.252;18.688;2023-02-01T04:41:56;11.35;;;7.03;;
36923;SDS011;22841;50.252;18.688;2023-02-01T04:44:22;12.50;;;5.97;;
36923;SDS011;22841;50.252;18.688;2023-02-01T04:46:48;10.23;;;6.45;;
36923;SDS011;22841;50.252;18.688;2023-02-01T04:49:15;9.68;;;5.45;;
36923;SDS011;22841;50.252;18.688;2023-02-01T04:51:41;12.10;;;6.20;;
36923;SDS011;22841;50.252;18.688;2023-02-01T04:54:08;9.88;;;5.60;;
36923;SDS011;22841;50.252;18.688;2023-02-01T04:56:37;16.33;;;8.30;;
36923;SDS011;22841;50.252;18.688;2023-02-01T04:59:03;16.25;;;9.23;;
36923;SDS011;22841;50.252;18.688;2023-02-01T05:01:30;28.88;;;10.82;;
36923;SDS011;22841;50.252;18.688;2023-02-01T05:03:56;20.58;;;9.65;;
36923;SDS011;22841;50.252;18.688;2023-02-01T05:06:22;15.30;;;9.10;;
36923;SDS011;22841;50.252;18.688;2023-02-01T05:08:48;22.38;;;9.88;;
36923;SDS011;22841;50.252;18.688;2023-02-01T05:11:14;25.67;;;10.70;;
36923;SDS011;22841;50.252;18.688;2023-02-01T05:13:59;16.95;;;6.93;;
36923;SDS011;22841;50.252;18.688;2023-02-01T05:16:26;15.65;;;6.88;;
36923;SDS011;22841;50.252;18.688;2023-02-01T05:18:52;23.75;;;8.63;;
36923;SDS011;22841;50.252;18.688;2023-02-01T05:21:19;14.73;;;7.30;;
36923;SDS011;22841;50.252;18.688;2023-02-01T05:23:45;16.15;;;7.53;;
36923;SDS011;22841;50.252;18.688;2023-02-01T05:26:30;38.72;;;11.02;;
36923;SDS011;22841;50.252;18.688;2023-02-01T05:28:57;28.80;;;10.90;;
36923;SDS011;22841;50.252;18.688;2023-02-01T05:31:23;40.42;;;12.82;;
36923;SDS011;22841;50.252;18.688;2023-02-01T05:33:49;45.50;;;13.50;;
36923;SDS011;22841;50.252;18.688;2023-02-01T05:36:15;41.20;;;14.07;;
36923;SDS011;22841;50.252;18.688;2023-02-01T05:38:41;38.97;;;14.13;;
36923;SDS011;22841;50.252;18.688;2023-02-01T05:41:08;43.95;;;12.77;;
36923;SDS011;22841;50.252;18.688;2023-02-01T05:43:34;24.85;;;8.82;;
36923;SDS011;22841;50.252;18.688;2023-02-01T05:46:00;24.33;;;7.97;;
36923;SDS011;22841;50.252;18.688;2023-02-01T05:48:26;29.50;;;8.50;;
36923;SDS011;22841;50.252;18.688;2023-02-01T05:50:53;37.50;;;9.27;;
36923;SDS011;22841;50.252;18.688;2023-02-01T05:53:19;25.08;;;6.82;;
36923;SDS011;22841;50.252;18.688;2023-02-01T05:55:45;28.13;;;8.25;;
36923;SDS011;22841;50.252;18.688;2023-02-01T05:58:11;24.35;;;7.05;;
36923;SDS011;22841;50.252;18.688;2023-02-01T06:00:37;29.40;;;6.20;;
36923;SDS011;22841;50.252;18.688;2023-02-01T06:03:04;25.85;;;7.47;;
36923;SDS011;22841;50.252;18.688;2023-02-01T06:05:30;11.80;;;5.53;;
36923;SDS011;22841;50.252;18.688;2023-02-01T06:07:57;14.35;;;5.40;;
36923;SDS011;22841;50.252;18.688;2023-02-01T06:10:23;22.00;;;5.85;;
36923;SDS011;22841;50.252;18.688;2023-02-01T06:12:49;18.77;;;4.93;;
36923;SDS011;22841;50.252;18.688;2023-02-01T06:15:16;18.88;;;5.78;;
36923;SDS011;22841;50.252;18.688;2023-02-01T06:17:43;26.88;;;7.68;;
36923;SDS011;22841;50.252;18.688;2023-02-01T06:20:10;23.90;;;7.72;;
36923;SDS011;22841;50.252;18.688;2023-02-01T06:22:38;20.95;;;6.60;;
36923;SDS011;22841;50.252;18.688;2023-02-01T06:25:05;32.63;;;8.45;;
36923;SDS011;22841;50.252;18.688;2023-02-01T06:27:35;21.20;;;6.35;;
36923;SDS011;22841;50.252;18.688;2023-02-01T06:30:02;24.50;;;7.63;;
36923;SDS011;22841;50.252;18.688;2023-02-01T06:32:29;19.77;;;7.72;;
36923;SDS011;22841;50.252;18.688;2023-02-01T06:34:55;19.25;;;6.43;;
36923;SDS011;22841;50.252;18.688;2023-02-01T06:37:22;20.95;;;7.10;;
36923;SDS011;22841;50.252;18.688;2023-02-01T06:39:50;18.00;;;6.93;;
36923;SDS011;22841;50.252;18.688;2023-02-01T06:42:16;16.77;;;5.53;;
36923;SDS011;22841;50.252;18.688;2023-02-01T06:44:42;13.15;;;5.70;;
36923;SDS011;22841;50.252;18.688;2023-02-01T06:47:08;18.63;;;6.18;;
36923;SDS011;22841;50.252;18.688;2023-02-01T06:49:34;12.73;;;4.43;;
36923;SDS011;22841;50.252;18.688;2023-02-01T06:52:01;11.93;;;4.07;;
36923;SDS011;22841;50.252;18.688;2023-02-01T06:54:27;15.70;;;4.85;;
36923;SDS011;22841;50.252;18.688;2023-02-01T06:56:53;20.38;;;5.28;;
36923;SDS011;22841;50.252;18.688;2023-02-01T06:59:19;24.08;;;6.43;;
36923;SDS011;22841;50.252;18.688;2023-02-01T07:01:45;23.70;;;6.68;;
36923;SDS011;22841;50.252;18.688;2023-02-01T07:04:11;27.92;;;6.43;;
36923;SDS011;22841;50.252;18.688;2023-02-01T07:06:38;16.98;;;6.30;;
36923;SDS011;22841;50.252;18.688;2023-02-01T07:09:05;16.48;;;6.65;;
36923;SDS011;22841;50.252;18.688;2023-02-01T07:11:32;20.88;;;5.30;;
36923;SDS011;22841;50.252;18.688;2023-02-01T07:13:58;15.95;;;5.35;;
36923;SDS011;22841;50.252;18.688;2023-02-01T07:16:24;14.00;;;6.03;;
36923;SDS011;22841;50.252;18.688;2023-02-01T07:18:51;17.67;;;6.22;;
36923;SDS011;22841;50.252;18.688;2023-02-01T07:21:18;15.82;;;6.13;;
36923;SDS011;22841;50.252;18.688;2023-02-01T07:23:45;23.45;;;8.35;;
36923;SDS011;22841;50.252;18.688;2023-02-01T07:26:12;27.08;;;13.18;;
36923;SDS011;22841;50.252;18.688;2023-02-01T07:28:39;30.67;;;14.55;;
36923;SDS011;22841;50.252;18.688;2023-02-01T07:31:10;29.20;;;12.88;;
36923;SDS011;22841;50.252;18.688;2023-02-01T07:33:39;29.92;;;8.45;;
36923;SDS011;22841;50.252;18.688;2023-02-01T07:36:05;24.40;;;7.95;;
36923;SDS011;22841;50.252;18.688;2023-02-01T07:38:33;21.25;;;6.80;;
36923;SDS011;22841;50.252;18.688;2023-02-01T07:41:00;14.73;;;7.90;;
36923;SDS011;22841;50.252;18.688;2023-02-01T07:43:27;20.25;;;7.40;;
36923;SDS011;22841;50.252;18.688;2023-02-01T07:45:54;17.38;;;7.18;;
36923;SDS011;22841;50.252;18.688;2023-02-01T07:48:20;24.08;;;8.77;;
36923;SDS011;22841;50.252;18.688;2023-02-01T07:50:48;22.77;;;9.32;;
36923;SDS011;22841;50.252;18.688;2023-02-01T07:53:22;19.67;;;9.10;;
36923;SDS011;22841;50.252;18.688;2023-02-01T07:55:48;21.13;;;8.77;;
36923;SDS011;22841;50.252;18.688;2023-02-01T07:58:14;20.15;;;7.90;;
36923;SDS011;22841;50.252;18.688;2023-02-01T08:00:40;19.90;;;8.43;;
36923;SDS011;22841;50.252;18.688;2023-02-01T08:03:24;21.55;;;9.05;;
36923;SDS011;22841;50.252;18.688;2023-02-01T08:05:56;16.45;;;9.25;;
36923;SDS011;22841;50.252;18.688;2023-02-01T08:08:23;20.98;;;9.68;;
36923;SDS011;22841;50.252;18.688;2023-02-01T08:10:49;26.38;;;8.35;;
36923;SDS011;22841;50.252;18.688;2023-02-01T08:13:15;22.77;;;8.65;;
36923;SDS011;22841;50.252;18.688;2023-02-01T08:15:41;24.08;;;8.63;;
36923;SDS011;22841;50.252;18.688;2023-02-01T08:18:07;19.30;;;7.35;;
36923;SDS011;22841;50.252;18.688;2023-02-01T08:20:35;20.42;;;8.32;;
36923;SDS011;22841;50.252;18.688;2023-02-01T08:23:01;27.45;;;8.15;;
36923;SDS011;22841;50.252;18.688;2023-02-01T08:25:27;21.88;;;7.32;;
36923;SDS011;22841;50.252;18.688;2023-02-01T08:27:53;15.30;;;6.88;;
36923;SDS011;22841;50.252;18.688;2023-02-01T08:30:20;22.70;;;10.43;;
36923;SDS011;22841;50.252;18.688;2023-02-01T08:32:47;16.23;;;6.97;;
36923;SDS011;22841;50.252;18.688;2023-02-01T08:35:13;41.88;;;19.38;;
36923;SDS011;22841;50.252;18.688;2023-02-01T08:37:39;32.22;;;15.55;;
36923;SDS011;22841;50.252;18.688;2023-02-01T08:40:06;39.65;;;14.75;;
36923;SDS011;22841;50.252;18.688;2023-02-01T08:42:32;32.75;;;15.30;;
36923;SDS011;22841;50.252;18.688;2023-02-01T08:45:24;30.05;;;9.48;;
36923;SDS011;22841;50.252;18.688;2023-02-01T08:47:51;32.00;;;10.50;;
36923;SDS011;22841;50.252;18.688;2023-02-01T08:50:18;21.85;;;9.95;;
36923;SDS011;22841;50.252;18.688;2023-02-01T08:52:45;22.17;;;10.05;;
36923;SDS011;22841;50.252;18.688;2023-02-01T08:55:12;24.95;;;9.50;;
36923;SDS011;22841;50.252;18.688;2023-02-01T08:57:39;23.60;;;8.88;;
36923;SDS011;22841;50.252;18.688;2023-02-01T09:00:06;22.30;;;9.45;;
36923;SDS011;22841;50.252;18.688;2023-02-01T09:02:35;21.67;;;9.65;;
36923;SDS011;22841;50.252;18.688;2023-02-01T09:05:02;24.70;;;8.43;;
36923;SDS011;22841;50.252;18.688;2023-02-01T09:07:29;22.90;;;9.02;;
36923;SDS011;22841;50.252;18.688;2023-02-01T09:09:55;16.80;;;7.50;;
36923;SDS011;22841;50.252;18.688;2023-02-01T09:12:25;20.70;;;8.23;;
36923;SDS011;22841;50.252;18.688;2023-02-01T09:14:51;18.13;;;8.95;;
36923;SDS011;22841;50.252;18.688;2023-02-01T09:17:18;23.30;;;9.10;;
36923;SDS011;22841;50.252;18.688;2023-02-01T09:19:44;22.38;;;9.50;;
36923;SDS011;22841;50.252;18.688;2023-02-01T09:22:10;39.08;;;12.25;;
36923;SDS011;22841;50.252;18.688;2023-02-01T09:24:36;25.90;;;9.82;;
36923;SDS011;22841;50.252;18.688;2023-02-01T09:27:02;36.25;;;11.40;;
36923;SDS011;22841;50.252;18.688;2023-02-01T09:29:28;24.48;;;10.05;;
36923;SDS011;22841;50.252;18.688;2023-02-01T09:31:54;23.17;;;8.93;;
36923;SDS011;22841;50.252;18.688;2023-02-01T09:34:20;29.58;;;10.25;;
36923;SDS011;22841;50.252;18.688;2023-02-01T09:36:46;25.60;;;8.93;;
36923;SDS011;22841;50.252;18.688;2023-02-01T09:39:12;30.30;;;10.40;;
36923;SDS011;22841;50.252;18.688;2023-02-01T09:47:18;26.08;;;10.50;;
36923;SDS011;22841;50.252;18.688;2023-02-01T09:50:02;21.80;;;9.75;;
36923;SDS011;22841;50.252;18.688;2023-02-01T09:52:31;27.98;;;9.85;;
36923;SDS011;22841;50.252;18.688;2023-02-01T09:55:25;21.83;;;9.60;;
36923;SDS011;22841;50.252;18.688;2023-02-01T09:57:58;19.50;;;8.15;;
36923;SDS011;22841;50.252;18.688;2023-02-01T10:00:35;24.58;;;8.85;;
36923;SDS011;22841;50.252;18.688;2023-02-01T10:03:03;26.73;;;10.55;;
36923;SDS011;22841;50.252;18.688;2023-02-01T10:11:28;25.67;;;9.25;;
36923;SDS011;22841;50.252;18.688;2023-02-01T10:17:02;25.35;;;10.48;;
36923;SDS011;22841;50.252;18.688;2023-02-01T10:19:56;27.88;;;10.80;;
36923;SDS011;22841;50.252;18.688;2023-02-01T10:22:42;30.35;;;11.38;;
36923;SDS011;22841;50.252;18.688;2023-02-01T10:27:47;27.58;;;10.52;;
36923;SDS011;22841;50.252;18.688;2023-02-01T10:30:19;30.60;;;11.00;;
36923;SDS011;22841;50.252;18.688;2023-02-01T10:32:47;30.00;;;9.93;;
36923;SDS011;22841;50.252;18.688;2023-02-01T10:35:34;30.20;;;9.95;;
36923;SDS011;22841;50.252;18.688;2023-02-01T10:38:04;24.50;;;9.23;;
36923;SDS011;22841;50.252;18.688;2023-02-01T10:40:45;25.40;;;10.48;;
36923;SDS011;22841;50.252;18.688;2023-02-01T10:43:12;25.35;;;9.00;;
36923;SDS011;22841;50.252;18.688;2023-02-01T10:45:38;26.55;;;8.93;;
36923;SDS011;22841;50.252;18.688;2023-02-01T10:48:05;19.05;;;7.47;;
36923;SDS011;22841;50.252;18.688;2023-02-01T10:50:35;18.83;;;8.07;;
36923;SDS011;22841;50.252;18.688;2023-02-01T10:55:39;19.45;;;6.50;;
36923;SDS011;22841;50.252;18.688;2023-02-01T10:58:15;16.27;;;6.75;;
36923;SDS011;22841;50.252;18.688;2023-02-01T11:05:58;20.48;;;7.53;;
36923;SDS011;22841;50.252;18.688;2023-02-01T11:08:25;19.27;;;6.70;;
36923;SDS011;22841;50.252;18.688;2023-02-01T11:10:57;22.40;;;7.60;;
36923;SDS011;22841;50.252;18.688;2023-02-01T11:13:28;19.58;;;7.45;;
36923;SDS011;22841;50.252;18.688;2023-02-01T11:15:56;21.05;;;7.38;;
36923;SDS011;22841;50.252;18.688;2023-02-01T11:18:30;24.52;;;8.55;;
36923;SDS011;22841;50.252;18.688;2023-02-01T11:20:58;20.85;;;8.35;;
36923;SDS011;22841;50.252;18.688;2023-02-01T11:23:25;12.70;;;4.72;;
36923;SDS011;22841;50.252;18.688;2023-02-01T11:25:55;11.43;;;4.55;;
36923;SDS011;22841;50.252;18.688;2023-02-01T11:28:26;11.20;;;5.10;;
36923;SDS011;22841;50.252;18.688;2023-02-01T11:30:59;11.98;;;4.03;;
36923;SDS011;22841;50.252;18.688;2023-02-01T11:33:32;9.98;;;4.68;;
36923;SDS011;22841;50.252;18.688;2023-02-01T11:36:06;11.65;;;5.00;;
36923;SDS011;22841;50.252;18.688;2023-02-01T11:38:34;9.70;;;3.92;;
36923;SDS011;22841;50.252;18.688;2023-02-01T11:41:20;13.45;;;5.05;;
36923;SDS011;22841;50.252;18.688;2023-02-01T11:43:56;9.20;;;4.28;;
36923;SDS011;22841;50.252;18.688;2023-02-01T11:46:26;9.82;;;4.35;;
36923;SDS011;22841;50.252;18.688;2023-02-01T11:49:13;11.13;;;5.18;;
36923;SDS011;22841;50.252;18.688;2023-02-01T12:03:01;9.43;;;4.35;;
36923;SDS011;22841;50.252;18.688;2023-02-01T12:33:03;13.35;;;5.38;;
36923;SDS011;22841;50.252;18.688;2023-02-01T12:36:03;14.13;;;6.57;;
36923;SDS011;22841;50.252;18.688;2023-02-01T12:42:00;15.63;;;5.53;;
36923;SDS011;22841;50.252;18.688;2023-02-01T13:06:17;11.02;;;5.82;;
36923;SDS011;22841;50.252;18.688;2023-02-01T17:51:04;24.38;;;10.45;;
36923;SDS011;22841;50.252;18.688;2023-02-01T17:54:11;26.05;;;12.00;;
36923;SDS011;22841;50.252;18.688;2023-02-01T17:59:14;29.35;;;13.93;;
36923;SDS011;22841;50.252;18.688;2023-02-01T18:45:01;26.53;;;11.70;;
36923;SDS011;22841;50.252;18.688;2023-02-01T18:47:28;103.97;;;37.70;;
36923;SDS011;22841;50.252;18.688;2023-02-01T18:52:52;27.92;;;13.48;;
36923;SDS011;22841;50.252;18.688;2023-02-01T18:55:19;31.67;;;13.23;;
36923;SDS011;22841;50.252;18.688;2023-02-01T18:57:45;38.42;;;15.38;;
36923;SDS011;22841;50.252;18.688;2023-02-01T19:00:12;35.17;;;13.82;;
36923;SDS011;22841;50.252;18.688;2023-02-01T19:02:38;38.15;;;17.13;;
36923;SDS011;22841;50.252;18.688;2023-02-01T19:05:05;70.55;;;26.60;;
36923;SDS011;22841;50.252;18.688;2023-02-01T19:07:34;42.03;;;17.95;;
36923;SDS011;22841;50.252;18.688;2023-02-01T19:10:01;32.65;;;12.88;;
36923;SDS011;22841;50.252;18.688;2023-02-01T19:12:31;33.40;;;14.93;;
36923;SDS011;22841;50.252;18.688;2023-02-01T19:15:04;38.60;;;16.23;;
36923;SDS011;22841;50.252;18.688;2023-02-01T19:17:32;35.03;;;15.95;;
36923;SDS011;22841;50.252;18.688;2023-02-01T19:19:58;38.08;;;17.52;;
36923;SDS011;22841;50.252;18.688;2023-02-01T19:25:12;37.97;;;17.33;;
36923;SDS011;22841;50.252;18.688;2023-02-01T19:27:41;40.55;;;18.13;;
36923;SDS011;22841;50.252;18.688;2023-02-01T19:30:07;37.70;;;16.48;;
36923;SDS011;22841;50.252;18.688;2023-02-01T19:32:35;40.60;;;15.63;;
36923;SDS011;22841;50.252;18.688;2023-02-01T19:35:02;34.83;;;16.30;;
36923;SDS011;22841;50.252;18.688;2023-02-01T19:37:29;33.22;;;15.00;;
36923;SDS011;22841;50.252;18.688;2023-02-01T19:39:55;45.90;;;19.30;;
36923;SDS011;22841;50.252;18.688;2023-02-01T19:42:26;36.45;;;16.90;;
36923;SDS011;22841;50.252;18.688;2023-02-01T19:44:52;37.40;;;16.48;;
36923;SDS011;22841;50.252;18.688;2023-02-01T19:47:18;33.97;;;16.73;;
36923;SDS011;22841;50.252;18.688;2023-02-01T19:49:45;32.90;;;16.80;;
36923;SDS011;22841;50.252;18.688;2023-02-01T19:52:11;45.55;;;16.85;;
36923;SDS011;22841;50.252;18.688;2023-02-01T19:54:37;36.47;;;14.60;;
36923;SDS011;22841;50.252;18.688;2023-02-01T19:57:03;50.85;;;23.42;;
36923;SDS011;22841;50.252;18.688;2023-02-01T19:59:29;66.57;;;29.52;;
36923;SDS011;22841;50.252;18.688;2023-02-01T20:01:56;56.28;;;26.15;;
36923;SDS011;22841;50.252;18.688;2023-02-01T20:04:22;51.22;;;25.50;;
36923;SDS011;22841;50.252;18.688;2023-02-01T20:06:48;54.75;;;24.55;;
36923;SDS011;22841;50.252;18.688;2023-02-01T20:09:25;52.30;;;25.83;;
36923;SDS011;22841;50.252;18.688;2023-02-01T20:11:55;66.53;;;27.15;;
36923;SDS011;22841;50.252;18.688;2023-02-01T20:14:22;64.90;;;29.52;;
36923;SDS011;22841;50.252;18.688;2023-02-01T20:16:51;70.53;;;30.02;;
36923;SDS011;22841;50.252;18.688;2023-02-01T20:19:20;71.82;;;30.38;;
36923;SDS011;22841;50.252;18.688;2023-02-01T20:24:31;63.40;;;23.42;;
36923;SDS011;22841;50.252;18.688;2023-02-01T20:26:57;57.08;;;23.38;;
